Newcastle, Nebraska
Current Conditions -  °F | °C
As of 7:15 PM on Thursday 27 Nov 2014 (Local Time) from KLCG Reporting Station
Scattered Clouds Scattered Clouds  
Wind Chill: -14°   Ceiling: Unl
Heat Index: -7°   Visibility: 10mi
Dew Point: -12°   Wind: 14mph
Humidity: 67%   Direction: 140°SE
Pressure: 30.2"   Gusts: NA
Location:  42.65°N, 96.87°W
Report Text: KLCG 280115Z AUTO 14012KT 10SM SCT110 M07/M12 A3020 RMK AO2 T10681120
Loading
Personal Weather Stations






























Interactive Weather Map New forecast layout! Learn more

10-Day Weather Forecast

Advertisements
Track Severe Weather on mobile